sensor_id;sensor_type;location;lat;lon;timestamp;pressure;altitude;pressure_sealevel;temperature;humidity
83941;BME280;73976;68.386;23.636;2024-03-02T10:54:50;97956.81;;;18.91;49.04
83941;BME280;73976;68.386;23.636;2024-03-02T10:59:56;97957.56;;;19.03;48.13
83941;BME280;73976;68.386;23.636;2024-03-02T11:05:04;97950.66;;;19.07;49.48
83941;BME280;73976;68.386;23.636;2024-03-02T11:15:10;97937.44;;;15.71;46.42
83941;BME280;73976;68.386;23.636;2024-03-02T11:23:49;97979.00;;;8.31;65.84
83941;BME280;73976;68.386;23.636;2024-03-02T11:31:07;97988.44;;;6.04;66.78
83941;BME280;73976;68.386;23.636;2024-03-02T11:43:27;98009.84;;;3.66;72.30
83941;BME280;73976;68.386;23.636;2024-03-02T11:48:37;97981.19;;;3.20;70.23
83941;BME280;73976;68.386;23.636;2024-03-02T11:58:01;98028.13;;;3.93;62.63
83941;BME280;73976;68.386;23.636;2024-03-02T12:12:44;98035.41;;;2.80;72.42
83941;BME280;73976;68.386;23.636;2024-03-02T12:17:53;98048.56;;;2.69;74.62
83941;BME280;73976;68.386;23.636;2024-03-02T13:24:14;98074.13;;;1.87;75.05
83941;BME280;73976;68.386;23.636;2024-03-02T13:38:14;98065.09;;;2.01;70.29
83941;BME280;73976;68.386;23.636;2024-03-02T13:47:00;98054.66;;;1.91;71.82
83941;BME280;73976;68.386;23.636;2024-03-02T14:02:56;98093.88;;;2.00;73.58
83941;BME280;73976;68.386;23.636;2024-03-02T14:07:57;98084.69;;;1.96;70.90
83941;BME280;73976;68.386;23.636;2024-03-02T14:12:34;98053.09;;;1.70;73.70
83941;BME280;73976;68.386;23.636;2024-03-02T14:16:39;98079.19;;;1.89;71.58
83941;BME280;73976;68.386;23.636;2024-03-02T14:20:45;98016.16;;;1.46;69.96
83941;BME280;73976;68.386;23.636;2024-03-02T15:03:14;98135.75;;;1.77;58.98
83941;BME280;73976;68.386;23.636;2024-03-02T15:11:47;98149.81;;;1.45;74.71
83941;BME280;73976;68.386;23.636;2024-03-02T15:16:55;98131.97;;;1.40;76.26
83941;BME280;73976;68.386;23.636;2024-03-02T15:25:33;98132.94;;;1.39;74.09
83941;BME280;73976;68.386;23.636;2024-03-02T15:54:10;98153.94;;;1.27;68.14
83941;BME280;73976;68.386;23.636;2024-03-02T16:00:27;98135.34;;;1.11;73.93
83941;BME280;73976;68.386;23.636;2024-03-02T16:04:33;98156.13;;;1.22;72.12
83941;BME280;73976;68.386;23.636;2024-03-02T16:09:04;98138.22;;;1.08;71.20
83941;BME280;73976;68.386;23.636;2024-03-02T16:21:16;98160.06;;;1.37;69.92
83941;BME280;73976;68.386;23.636;2024-03-02T16:38:12;98150.41;;;1.28;69.74
83941;BME280;73976;68.386;23.636;2024-03-02T16:45:34;98188.69;;;1.37;69.20
83941;BME280;73976;68.386;23.636;2024-03-02T16:49:46;98205.94;;;1.38;70.98
83941;BME280;73976;68.386;23.636;2024-03-02T18:08:14;98249.84;;;1.31;67.91
83941;BME280;73976;68.386;23.636;2024-03-02T18:15:50;98254.25;;;1.72;60.15
83941;BME280;73976;68.386;23.636;2024-03-02T18:19:59;98249.69;;;1.44;66.27
83941;BME280;73976;68.386;23.636;2024-03-02T18:24:09;98261.97;;;1.42;68.33
83941;BME280;73976;68.386;23.636;2024-03-02T18:28:16;98263.66;;;1.43;67.20
83941;BME280;73976;68.386;23.636;2024-03-02T18:38:09;98263.44;;;1.35;69.07
83941;BME280;73976;68.386;23.636;2024-03-02T18:42:22;98268.66;;;1.35;68.56
83941;BME280;73976;68.386;23.636;2024-03-02T18:46:52;98245.88;;;1.16;67.66
83941;BME280;73976;68.386;23.636;2024-03-02T19:19:21;98266.03;;;1.35;67.49
83941;BME280;73976;68.386;23.636;2024-03-02T19:26:27;98236.34;;;1.06;72.10
83941;BME280;73976;68.386;23.636;2024-03-02T19:30:36;98282.41;;;1.26;68.98
83941;BME280;73976;68.386;23.636;2024-03-02T19:43:42;98252.91;;;1.05;74.99
83941;BME280;73976;68.386;23.636;2024-03-02T19:48:16;98239.13;;;0.93;70.57
83941;BME280;73976;68.386;23.636;2024-03-02T19:53:02;98194.41;;;0.68;68.66
83941;BME280;73976;68.386;23.636;2024-03-02T19:57:11;98248.44;;;0.96;69.26
83941;BME280;73976;68.386;23.636;2024-03-02T20:08:10;98204.44;;;0.72;71.60
83941;BME280;73976;68.386;23.636;2024-03-02T20:12:52;98163.38;;;0.44;70.00
83941;BME280;73976;68.386;23.636;2024-03-02T20:17:31;98275.69;;;1.12;71.38
83941;BME280;73976;68.386;23.636;2024-03-02T20:38:19;98196.63;;;0.72;68.16
83941;BME280;73976;68.386;23.636;2024-03-02T20:54:52;98184.00;;;0.68;65.83
83941;BME280;73976;68.386;23.636;2024-03-02T20:58:59;98277.94;;;1.17;67.00
83941;BME280;73976;68.386;23.636;2024-03-02T21:11:52;98259.44;;;0.99;74.88
83941;BME280;73976;68.386;23.636;2024-03-02T21:15:58;98268.25;;;1.08;71.89
83941;BME280;73976;68.386;23.636;2024-03-02T21:28:26;98151.94;;;0.36;69.19
83941;BME280;73976;68.386;23.636;2024-03-02T21:32:32;98271.59;;;1.10;69.95
83941;BME280;73976;68.386;23.636;2024-03-02T21:39:52;98251.81;;;1.07;67.25
83941;BME280;73976;68.386;23.636;2024-03-02T21:47:07;98241.66;;;1.04;67.92
83941;BME280;73976;68.386;23.636;2024-03-02T21:53:17;98269.78;;;1.10;75.13
83941;BME280;73976;68.386;23.636;2024-03-02T22:10:18;98275.81;;;1.11;73.50
83941;BME280;73976;68.386;23.636;2024-03-02T22:14:23;98193.44;;;0.69;76.64
83941;BME280;73976;68.386;23.636;2024-03-02T22:19:19;98118.47;;;0.11;74.07
83941;BME280;73976;68.386;23.636;2024-03-02T22:31:52;98248.09;;;0.89;76.29
83941;BME280;73976;68.386;23.636;2024-03-02T22:38:05;98272.31;;;1.01;78.47
83941;BME280;73976;68.386;23.636;2024-03-02T22:42:14;98275.16;;;0.98;78.51
83941;BME280;73976;68.386;23.636;2024-03-02T22:46:21;98251.66;;;0.88;83.03
83941;BME280;73976;68.386;23.636;2024-03-02T22:53:12;98272.81;;;0.95;75.81
83941;BME280;73976;68.386;23.636;2024-03-02T22:57:18;98242.81;;;0.80;78.97
83941;BME280;73976;68.386;23.636;2024-03-02T23:04:32;98240.72;;;0.74;82.32
83941;BME280;73976;68.386;23.636;2024-03-02T23:11:57;98268.66;;;0.92;79.96
83941;BME280;73976;68.386;23.636;2024-03-02T23:16:07;98264.78;;;0.87;83.52
83941;BME280;73976;68.386;23.636;2024-03-02T23:22:35;98265.66;;;1.08;64.00
83941;BME280;73976;68.386;23.636;2024-03-02T23:26:41;98262.75;;;0.90;76.22
83941;BME280;73976;68.386;23.636;2024-03-02T23:30:48;98264.78;;;0.87;83.71
83941;BME280;73976;68.386;23.636;2024-03-02T23:40:34;98225.84;;;0.65;84.21
83941;BME280;73976;68.386;23.636;2024-03-02T23:45:02;98227.72;;;0.63;80.30
83941;BME280;73976;68.386;23.636;2024-03-02T23:53:07;98257.59;;;0.79;80.97
83941;BME280;73976;68.386;23.636;2024-03-02T23:58:55;98222.03;;;0.58;80.60
